createdAt,value
2019-04-26T00:02:02.055Z,22.9
2019-04-26T00:05:10.550Z,22.9
2019-04-26T00:08:20.398Z,22.7
2019-04-26T00:11:27.794Z,22.7
2019-04-26T00:14:33.930Z,22.6
2019-04-26T00:17:40.270Z,22.6
2019-04-26T00:20:49.518Z,22.5
2019-04-26T00:23:55.699Z,22.5
2019-04-26T00:27:03.349Z,22.5
2019-04-26T00:30:10.516Z,22.5
2019-04-26T00:33:21.388Z,22.5
2019-04-26T00:36:27.615Z,22.4
2019-04-26T00:39:33.844Z,22.5
2019-04-26T00:42:40.112Z,22.5
2019-04-26T00:45:46.406Z,22.5
2019-04-26T00:48:52.653Z,22.5
2019-04-26T00:51:58.863Z,22.4
2019-04-26T00:55:05.125Z,22.5
2019-04-26T00:58:11.277Z,22.4
2019-04-26T01:01:22.803Z,22.4
2019-04-26T01:04:30.073Z,22.4
2019-04-26T01:07:36.223Z,22.4
2019-04-26T01:10:42.421Z,22.5
2019-04-26T01:13:48.662Z,22.4
2019-04-26T01:16:54.887Z,22.4
2019-04-26T01:20:01.160Z,22.4
2019-04-26T01:23:07.530Z,22.4
2019-04-26T01:26:13.767Z,22.4
2019-04-26T01:29:21.850Z,22.4
2019-04-26T01:32:29.903Z,22.4
2019-04-26T01:35:35.996Z,22.4
2019-04-26T01:38:42.227Z,22.4
2019-04-26T01:41:48.536Z,22.4
2019-04-26T01:44:54.704Z,22.4
2019-04-26T01:48:00.878Z,22.4
2019-04-26T01:51:07.015Z,22.3
2019-04-26T01:54:13.195Z,22.3
2019-04-26T01:57:19.444Z,22.3
2019-04-26T02:00:31.686Z,22.3
2019-04-26T02:03:37.989Z,22.3
2019-04-26T02:06:44.222Z,22.3
2019-04-26T02:09:50.463Z,22.3
2019-04-26T02:12:56.635Z,22.3
2019-04-26T02:16:02.787Z,22.3
2019-04-26T02:19:09.013Z,22.3
2019-04-26T02:22:15.230Z,22.2
2019-04-26T02:25:21.494Z,22.2
2019-04-26T02:28:32.384Z,22.2
2019-04-26T02:31:39.597Z,22.2
2019-04-26T02:34:45.722Z,22.2
2019-04-26T02:37:52.020Z,22.2
2019-04-26T02:40:58.136Z,22.2
2019-04-26T02:44:04.375Z,22.2
2019-04-26T02:47:13.474Z,22.2
2019-04-26T02:50:19.606Z,22.2
2019-04-26T02:53:27.441Z,22.2
2019-04-26T02:56:42.683Z,22.2
2019-04-26T02:59:48.988Z,22.1
2019-04-26T03:02:55.204Z,22.2
2019-04-26T03:06:01.440Z,22.1
2019-04-26T03:09:07.982Z,22.1
2019-04-26T03:12:14.227Z,22.1
2019-04-26T03:15:20.462Z,22.1
2019-04-26T03:18:26.641Z,22.1
2019-04-26T03:21:34.465Z,22.1
2019-04-26T03:24:44.711Z,22.1
2019-04-26T03:27:53.212Z,22.1
2019-04-26T03:30:59.399Z,22.1
2019-04-26T03:34:06.100Z,22.1
2019-04-26T03:37:20.574Z,22.1
2019-04-26T03:40:27.549Z,22.1
2019-04-26T03:43:38.441Z,22.1
2019-04-26T03:46:49.257Z,22.1
2019-04-26T03:49:55.651Z,22.1
2019-04-26T03:53:01.820Z,22.1
2019-04-26T03:56:07.991Z,22.1
2019-04-26T03:59:17.099Z,22.1
2019-04-26T04:02:23.359Z,22.2
2019-04-26T04:05:29.674Z,22.2
2019-04-26T04:08:36.307Z,22.2
2019-04-26T04:12:09.399Z,22.2
2019-04-26T04:15:18.290Z,22.3
2019-04-26T04:18:24.625Z,22.3
2019-04-26T04:21:30.778Z,22.3
2019-04-26T04:24:41.583Z,22.4
2019-04-26T04:27:53.419Z,22.4
2019-04-26T04:30:59.704Z,22.5
2019-04-26T04:34:08.619Z,22.6
2019-04-26T04:37:14.893Z,22.6
2019-04-26T04:40:21.152Z,22.6
2019-04-26T04:43:27.583Z,22.7
2019-04-26T04:46:33.989Z,22.8
2019-04-26T04:49:41.109Z,22.8
2019-04-26T04:52:59.161Z,22.8
2019-04-26T04:56:08.289Z,23
2019-04-26T04:59:14.465Z,23
2019-04-26T05:02:20.627Z,23.1
2019-04-26T05:05:26.783Z,23.1
2019-04-26T05:08:33.062Z,23.1
2019-04-26T05:11:39.174Z,23.1
2019-04-26T05:14:52.222Z,23.1
2019-04-26T05:17:59.441Z,23.1
2019-04-26T05:21:05.669Z,23.2
2019-04-26T05:24:11.909Z,23.3
2019-04-26T05:27:18.182Z,23.3
2019-04-26T05:30:24.267Z,23.2
2019-04-26T05:33:30.490Z,23.3
2019-04-26T05:36:36.726Z,23.3
2019-04-26T05:39:42.885Z,23.4
2019-04-26T05:42:49.758Z,23.4
2019-04-26T05:45:58.996Z,23.4
2019-04-26T05:49:06.250Z,23.5
2019-04-26T05:52:13.664Z,23.5
2019-04-26T05:55:19.963Z,23.5
2019-04-26T05:58:26.082Z,23.5
2019-04-26T06:01:32.318Z,23.6
2019-04-26T06:04:38.558Z,23.6
2019-04-26T06:07:44.761Z,23.6
2019-04-26T06:10:51.510Z,23.7
2019-04-26T06:14:01.989Z,23.7
2019-04-26T06:17:08.233Z,23.7
2019-04-26T06:20:22.490Z,23.7
2019-04-26T06:23:29.371Z,23.8
2019-04-26T06:26:35.635Z,23.8
2019-04-26T06:29:41.852Z,23.9
2019-04-26T06:32:56.343Z,23.9
2019-04-26T06:36:11.404Z,23.9
2019-04-26T06:39:18.161Z,23.9
2019-04-26T06:42:24.373Z,23.9
2019-04-26T06:45:30.689Z,24
2019-04-26T06:48:36.926Z,24
2019-04-26T06:51:43.173Z,24
2019-04-26T06:54:49.289Z,24
2019-04-26T06:57:55.491Z,24.1
2019-04-26T07:01:05.566Z,24.1
2019-04-26T07:04:12.737Z,24.2
2019-04-26T07:07:19.685Z,24.2
2019-04-26T07:10:25.873Z,24.2
2019-04-26T07:13:32.039Z,24.3
2019-04-26T07:16:38.221Z,24.3
2019-04-26T07:19:44.412Z,24.3
2019-04-26T07:22:50.694Z,24.4
2019-04-26T07:25:56.984Z,24.4
2019-04-26T07:29:04.896Z,24.5
2019-04-26T07:32:14.514Z,24.5
2019-04-26T07:35:20.844Z,24.5
2019-04-26T07:38:27.119Z,24.5
2019-04-26T07:41:35.837Z,24.6
2019-04-26T07:44:41.980Z,24.6
2019-04-26T07:47:48.098Z,24.6
2019-04-26T07:50:54.472Z,24.7
2019-04-26T07:54:00.745Z,24.7
2019-04-26T07:57:11.294Z,24.7
2019-04-26T08:00:18.534Z,24.8
2019-04-26T08:03:27.329Z,24.8
2019-04-26T08:06:33.507Z,24.8
2019-04-26T08:09:39.784Z,24.9
2019-04-26T08:12:46.043Z,24.9
2019-04-26T08:15:52.243Z,24.9
2019-04-26T08:18:58.496Z,24.9
2019-04-26T08:22:20.133Z,24.9
2019-04-26T08:25:38.577Z,24.9
2019-04-26T08:28:44.743Z,25
2019-04-26T08:31:53.319Z,25
2019-04-26T08:35:06.695Z,25
2019-04-26T08:38:26.669Z,25
2019-04-26T08:41:35.156Z,25
2019-04-26T08:44:45.333Z,25.1
2019-04-26T08:47:54.374Z,25.1
2019-04-26T08:51:00.687Z,25.1
2019-04-26T08:54:06.935Z,25.1
2019-04-26T08:57:13.139Z,25.1
2019-04-26T09:00:19.344Z,25.1
2019-04-26T09:03:25.579Z,25.2
2019-04-26T09:06:31.802Z,25.2
2019-04-26T09:09:38.005Z,25.2
2019-04-26T09:12:44.172Z,25.2
2019-04-26T09:15:53.645Z,25.3
2019-04-26T09:18:59.990Z,25.3
2019-04-26T09:22:12.670Z,25.3
2019-04-26T09:25:19.487Z,25.3
2019-04-26T09:28:28.354Z,25.3
2019-04-26T09:31:34.567Z,25.4
2019-04-26T09:34:41.581Z,25.3
2019-04-26T09:37:48.808Z,25.4
2019-04-26T09:40:56.190Z,25.4
2019-04-26T09:44:05.637Z,25.4
2019-04-26T09:47:11.873Z,25.4
2019-04-26T09:50:18.008Z,25.5
2019-04-26T09:53:24.227Z,25.5
2019-04-26T09:56:30.395Z,25.5
2019-04-26T09:59:39.938Z,25.5
2019-04-26T10:02:46.889Z,25.5
2019-04-26T10:05:55.758Z,25.5
2019-04-26T10:09:02.888Z,25.6
2019-04-26T10:12:09.130Z,25.6
2019-04-26T10:15:15.309Z,25.6
2019-04-26T10:18:24.248Z,25.6
2019-04-26T10:21:31.583Z,25.7
2019-04-26T10:24:37.833Z,25.7
2019-04-26T10:27:43.962Z,25.7
2019-04-26T10:30:50.148Z,25.7
2019-04-26T10:33:56.292Z,25.8
2019-04-26T10:37:05.986Z,25.8
2019-04-26T10:40:13.677Z,25.8
2019-04-26T10:43:19.794Z,25.9
2019-04-26T10:46:28.195Z,25.9
2019-04-26T10:49:35.150Z,25.9
2019-04-26T10:52:41.333Z,25.9
2019-04-26T10:55:59.294Z,25.9
2019-04-26T10:59:05.986Z,26
2019-04-26T11:02:16.129Z,26
2019-04-26T11:05:22.302Z,26
2019-04-26T11:08:28.484Z,26.1
2019-04-26T11:11:34.729Z,26.1
2019-04-26T11:14:40.886Z,26.1
2019-04-26T11:17:49.863Z,26.1
2019-04-26T11:20:56.766Z,26.2
2019-04-26T11:24:06.040Z,26.2
2019-04-26T11:27:16.063Z,26.2
2019-04-26T11:30:22.337Z,26.2
2019-04-26T11:33:28.616Z,26.3
2019-04-26T11:36:37.498Z,26.3
2019-04-26T11:41:47.226Z,26.3
2019-04-26T11:45:05.320Z,26.4
2019-04-26T11:48:21.005Z,26.4
2019-04-26T11:51:34.492Z,26.4
2019-04-26T11:54:40.716Z,26.4
2019-04-26T11:57:47.430Z,26.5
2019-04-26T12:00:54.784Z,26.5
2019-04-26T12:04:00.937Z,26.5
2019-04-26T12:07:07.112Z,26.5
2019-04-26T12:10:13.311Z,26.6
2019-04-26T12:13:21.246Z,26.6
2019-04-26T12:16:31.845Z,26.6
2019-04-26T12:20:03.976Z,26.7
2019-04-26T12:23:13.118Z,26.7
2019-04-26T12:26:27.125Z,26.8
2019-04-26T12:29:49.784Z,26.8
2019-04-26T12:32:56.058Z,26.8
2019-04-26T12:36:02.264Z,26.8
2019-04-26T12:39:08.501Z,26.8
2019-04-26T12:42:14.903Z,26.8
2019-04-26T12:45:21.073Z,26.9
2019-04-26T12:48:27.240Z,26.9
2019-04-26T12:51:33.461Z,26.9
2019-04-26T12:54:52.311Z,26.9
2019-04-26T12:58:01.516Z,26.9
2019-04-26T13:01:11.684Z,27
2019-04-26T13:04:19.111Z,27
2019-04-26T13:07:27.816Z,27
2019-04-26T13:10:35.376Z,27
2019-04-26T13:13:42.600Z,27
2019-04-26T13:16:48.792Z,27
2019-04-26T13:19:55.466Z,27
2019-04-26T13:23:01.799Z,27
2019-04-26T13:26:08.045Z,27.1
2019-04-26T13:29:14.204Z,27.1
2019-04-26T13:32:20.404Z,27.1
2019-04-26T13:35:26.592Z,27.1
2019-04-26T13:38:32.782Z,27.1
2019-04-26T13:41:42.842Z,27.1
2019-04-26T13:44:48.970Z,27.1
2019-04-26T13:47:55.239Z,27.2
2019-04-26T13:51:02.452Z,27.1
2019-04-26T13:54:11.456Z,27.2
2019-04-26T13:57:26.529Z,27.2
2019-04-26T14:00:32.752Z,27.2
2019-04-26T14:03:38.940Z,27.2
2019-04-26T14:06:45.176Z,27.2
2019-04-26T14:09:51.419Z,27.2
2019-04-26T14:12:57.594Z,27.2
2019-04-26T14:16:03.893Z,27.2
2019-04-26T14:19:14.381Z,27.2
2019-04-26T14:22:22.537Z,27.2
2019-04-26T14:25:30.615Z,27.2
2019-04-26T14:28:37.658Z,27.2
2019-04-26T14:31:47.169Z,27.3
2019-04-26T14:34:58.151Z,27.3
2019-04-26T14:38:07.199Z,27.3
2019-04-26T14:41:15.221Z,27.2
2019-04-26T14:44:31.164Z,27.3
2019-04-26T14:47:47.033Z,27.3
2019-04-26T14:50:53.652Z,27.3
2019-04-26T14:54:22.561Z,27.3
2019-04-26T14:57:31.551Z,27.3
2019-04-26T15:00:39.595Z,27.3
2019-04-26T15:03:47.109Z,27.3
2019-04-26T15:07:05.434Z,27.3
2019-04-26T15:10:13.542Z,27.3
2019-04-26T15:13:20.836Z,27.3
2019-04-26T15:16:29.421Z,27.3
2019-04-26T15:19:40.195Z,27.3
2019-04-26T15:22:52.894Z,27.3
2019-04-26T15:25:59.076Z,27.3
2019-04-26T15:29:07.167Z,27.3
2019-04-26T15:32:17.170Z,27.3
2019-04-26T15:35:23.371Z,27.3
2019-04-26T15:38:41.593Z,27.3
2019-04-26T15:41:51.420Z,27.3
2019-04-26T15:45:01.647Z,27.3
2019-04-26T15:48:09.115Z,27.3
2019-04-26T15:51:27.511Z,27.3
2019-04-26T15:54:33.786Z,27.3
2019-04-26T15:57:39.981Z,27.3
2019-04-26T16:00:47.815Z,27.3
2019-04-26T16:03:58.367Z,27.3
2019-04-26T16:07:09.907Z,27.3
2019-04-26T16:10:34.522Z,27.3
2019-04-26T16:13:45.009Z,27.3
2019-04-26T16:17:03.001Z,27.3
2019-04-26T16:20:13.947Z,27.2
2019-04-26T16:23:20.189Z,27.2
2019-04-26T16:26:57.794Z,27.2
2019-04-26T16:30:05.985Z,27.2
2019-04-26T16:33:13.402Z,27.2
2019-04-26T16:36:19.882Z,27.2
2019-04-26T16:39:36.314Z,27.2
2019-04-26T16:42:55.394Z,27.2
2019-04-26T16:46:12.458Z,27.2
2019-04-26T16:49:29.774Z,27.2
2019-04-26T16:52:51.151Z,27.2
2019-04-26T16:55:57.515Z,27.2
2019-04-26T16:59:03.769Z,27.2
2019-04-26T17:02:10.337Z,27.1
2019-04-26T17:05:47.102Z,27.2
2019-04-26T17:09:18.568Z,27.1
2019-04-26T17:13:03.137Z,27.1
2019-04-26T17:16:09.513Z,27.1
2019-04-26T17:19:19.722Z,27
2019-04-26T17:22:40.479Z,27
2019-04-26T17:26:07.576Z,27
2019-04-26T17:29:14.001Z,26.9
2019-04-26T17:32:20.236Z,26.9
2019-04-26T17:35:28.332Z,26.8
2019-04-26T17:38:39.141Z,26.8
2019-04-26T17:41:50.448Z,26.8
2019-04-26T17:45:02.141Z,26.8
2019-04-26T17:48:14.317Z,26.7
2019-04-26T17:51:22.827Z,26.7
2019-04-26T17:54:42.412Z,26.7
2019-04-26T17:58:09.936Z,26.6
2019-04-26T18:02:01.007Z,26.6
2019-04-26T18:05:07.439Z,26.6
2019-04-26T18:08:33.033Z,26.6
2019-04-26T18:12:03.328Z,26.5
2019-04-26T18:15:12.404Z,26.5
2019-04-26T18:18:26.675Z,26.5
2019-04-26T18:21:33.464Z,26.5
2019-04-26T18:24:39.715Z,26.5
2019-04-26T18:27:47.632Z,26.4
2019-04-26T18:30:53.833Z,26.4
2019-04-26T18:34:01.630Z,26.4
2019-04-26T18:37:09.814Z,26.4
2019-04-26T18:40:20.537Z,26.4
2019-04-26T18:43:28.736Z,26.3
2019-04-26T18:46:40.118Z,26.3
2019-04-26T18:49:58.064Z,26.3
2019-04-26T18:53:05.050Z,26.3
2019-04-26T18:56:12.627Z,26.3
2019-04-26T18:59:19.027Z,26.3
2019-04-26T19:02:27.292Z,26.2
2019-04-26T19:05:33.841Z,26.2
2019-04-26T19:08:46.171Z,26.2
2019-04-26T19:12:09.114Z,26.2
2019-04-26T19:15:17.124Z,26.2
2019-04-26T19:18:25.188Z,26.1
2019-04-26T19:21:32.164Z,26.1
2019-04-26T19:24:49.291Z,26.1
2019-04-26T19:28:04.182Z,26.1
2019-04-26T19:31:15.351Z,26.1
2019-04-26T19:34:31.781Z,26.1
2019-04-26T19:37:38.096Z,26
2019-04-26T19:40:47.706Z,26
2019-04-26T19:43:55.772Z,26
2019-04-26T19:47:03.122Z,26
2019-04-26T19:50:13.469Z,26
2019-04-26T19:53:21.715Z,26
2019-04-26T19:56:31.443Z,25.9
2019-04-26T19:59:38.050Z,25.9
2019-04-26T20:02:45.560Z,25.9
2019-04-26T20:05:52.894Z,25.9
2019-04-26T20:08:59.229Z,25.9
2019-04-26T20:12:07.275Z,25.8
2019-04-26T20:15:25.327Z,25.9
2019-04-26T20:18:38.806Z,25.8
2019-04-26T20:21:49.611Z,25.8
2019-04-26T20:24:58.180Z,25.8
2019-04-26T20:28:06.327Z,25.8
2019-04-26T20:31:12.620Z,25.8
2019-04-26T20:34:18.809Z,25.8
2019-04-26T20:37:26.889Z,25.8
2019-04-26T20:40:33.064Z,25.8
2019-04-26T20:43:44.194Z,25.7
2019-04-26T20:47:17.723Z,25.7
2019-04-26T20:50:32.854Z,25.7
2019-04-26T20:53:44.026Z,25.7
2019-04-26T20:56:55.098Z,25.7
2019-04-26T21:00:05.383Z,25.6
2019-04-26T21:03:22.586Z,25.6
2019-04-26T21:06:44.881Z,25.6
2019-04-26T21:09:51.312Z,25.6
2019-04-26T21:12:57.504Z,25.6
2019-04-26T21:16:10.438Z,25.5
2019-04-26T21:19:20.862Z,25.5
2019-04-26T21:22:28.661Z,25.5
2019-04-26T21:25:36.839Z,25.5
2019-04-26T21:28:43.895Z,25.5
2019-04-26T21:31:50.215Z,25.5
2019-04-26T21:34:56.375Z,25.5
2019-04-26T21:38:03.555Z,25.4
2019-04-26T21:41:11.532Z,25.4
2019-04-26T21:44:19.793Z,25.4
2019-04-26T21:47:27.441Z,25.4
2019-04-26T21:50:41.733Z,25.3
2019-04-26T21:53:49.431Z,25.3
2019-04-26T21:56:57.371Z,25.3
2019-04-26T22:00:04.126Z,25.3
2019-04-26T22:03:12.495Z,25.3
2019-04-26T22:06:24.958Z,25.3
2019-04-26T22:09:36.676Z,25.2
2019-04-26T22:12:43.198Z,25.3
2019-04-26T22:15:51.017Z,25.2
2019-04-26T22:19:00.359Z,25.2
2019-04-26T22:22:08.138Z,25.2
2019-04-26T22:25:14.347Z,25.2
2019-04-26T22:28:20.575Z,25.2
2019-04-26T22:31:41.340Z,25.1
2019-04-26T22:34:48.359Z,25.1
2019-04-26T22:37:54.599Z,25.1
2019-04-26T22:41:00.785Z,25.1
2019-04-26T22:44:08.776Z,25.1
2019-04-26T22:47:14.974Z,25.1
2019-04-26T22:50:22.251Z,25.1
2019-04-26T22:53:30.794Z,25
2019-04-26T22:56:38.598Z,25
2019-04-26T22:59:50.335Z,25
2019-04-26T23:03:03.448Z,25
2019-04-26T23:06:15.182Z,25
2019-04-26T23:09:23.116Z,25
2019-04-26T23:12:29.663Z,24.9
2019-04-26T23:15:37.784Z,24.9
2019-04-26T23:18:48.917Z,24.9
2019-04-26T23:21:56.946Z,24.9
2019-04-26T23:25:03.547Z,24.9
2019-04-26T23:28:09.789Z,24.8
2019-04-26T23:31:15.964Z,24.8
2019-04-26T23:34:22.782Z,24.8
2019-04-26T23:37:30.943Z,24.8
2019-04-26T23:40:37.146Z,24.8
2019-04-26T23:43:43.424Z,24.7
2019-04-26T23:46:49.595Z,24.7
2019-04-26T23:50:29.383Z,24.7
2019-04-26T23:53:38.556Z,24.7
2019-04-26T23:56:46.700Z,24.7
2019-04-26T23:59:56.266Z,24.6
